createdAt,value
2018-02-06T00:00:19.996Z,14.68
2018-02-06T00:00:43.795Z,14.87
2018-02-06T00:01:07.536Z,14.70
2018-02-06T00:01:31.309Z,14.00
2018-02-06T00:01:55.399Z,14.25
2018-02-06T00:02:19.159Z,15.07
2018-02-06T00:02:42.622Z,15.02
2018-02-06T00:03:06.397Z,15.43
2018-02-06T00:03:30.180Z,15.27
2018-02-06T00:03:53.925Z,14.57
2018-02-06T00:04:17.948Z,14.80
2018-02-06T00:04:41.992Z,15.00
2018-02-06T00:05:05.436Z,14.40
2018-02-06T00:05:29.203Z,14.60
2018-02-06T00:05:53.079Z,14.52
2018-02-06T00:06:16.904Z,14.48
2018-02-06T00:06:40.674Z,15.18
2018-02-06T00:07:04.705Z,14.77
2018-02-06T00:07:28.517Z,15.10
2018-02-06T00:07:52.611Z,14.63
2018-02-06T00:08:16.385Z,14.20
2018-02-06T00:08:39.846Z,14.00
2018-02-06T00:09:03.410Z,14.35
2018-02-06T00:09:26.871Z,14.20
2018-02-06T00:09:50.640Z,14.00
2018-02-06T00:10:14.437Z,13.70
2018-02-06T00:10:38.461Z,13.20
2018-02-06T00:11:02.973Z,13.13
2018-02-06T00:11:26.477Z,13.40
2018-02-06T00:11:50.226Z,13.90
2018-02-06T00:12:14.024Z,13.73
2018-02-06T00:12:37.846Z,13.77
2018-02-06T00:13:01.890Z,14.10
2018-02-06T00:13:25.387Z,14.37
2018-02-06T00:13:49.199Z,14.40
2018-02-06T00:14:12.949Z,13.77
2018-02-06T00:14:36.704Z,14.00
2018-02-06T00:15:00.164Z,14.10
2018-02-06T00:15:23.906Z,14.40
2018-02-06T00:15:47.739Z,14.15
2018-02-06T00:16:11.674Z,13.95
2018-02-06T00:16:35.521Z,14.00
2018-02-06T00:16:59.291Z,14.23
2018-02-06T00:17:23.355Z,15.30
2018-02-06T00:17:46.823Z,15.00
2018-02-06T00:18:10.632Z,14.68
2018-02-06T00:18:34.382Z,14.27
2018-02-06T00:18:58.133Z,14.30
2018-02-06T00:19:22.185Z,14.60
2018-02-06T00:19:45.933Z,14.20
2018-02-06T00:20:10.075Z,14.00
2018-02-06T00:20:33.912Z,13.73
2018-02-06T00:20:57.940Z,14.13
2018-02-06T00:21:21.824Z,14.07
2018-02-06T00:21:45.299Z,14.20
2018-02-06T00:22:08.414Z,14.27
2018-02-06T00:22:43.260Z,13.93
2018-02-06T00:23:07.009Z,13.48
2018-02-06T00:23:30.758Z,14.32
2018-02-06T00:23:54.505Z,14.30
2018-02-06T00:24:18.475Z,13.48
2018-02-06T00:24:42.250Z,13.48
2018-02-06T00:25:06.295Z,13.38
2018-02-06T00:25:29.986Z,13.27
2018-02-06T00:25:53.814Z,13.40
2018-02-06T00:26:18.088Z,13.77
2018-02-06T00:26:42.360Z,13.33
2018-02-06T00:27:06.152Z,13.62
2018-02-06T00:27:29.969Z,14.13
2018-02-06T00:27:54.006Z,14.13
2018-02-06T00:28:17.887Z,13.02
2018-02-06T00:28:41.369Z,13.00
2018-02-06T00:29:05.393Z,13.85
2018-02-06T00:29:29.275Z,14.10
2018-02-06T00:29:53.017Z,13.57
2018-02-06T00:30:16.802Z,12.75
2018-02-06T00:30:40.551Z,12.80
2018-02-06T00:31:04.488Z,13.60
2018-02-06T00:31:28.241Z,13.80
2018-02-06T00:31:51.783Z,13.93
2018-02-06T00:32:15.548Z,14.20
2018-02-06T00:32:39.430Z,14.20
2018-02-06T00:33:03.177Z,13.95
2018-02-06T00:33:26.955Z,13.48
2018-02-06T00:33:50.410Z,13.65
2018-02-06T00:34:14.169Z,14.10
2018-02-06T00:34:37.918Z,14.18
2018-02-06T00:35:01.998Z,14.00
2018-02-06T00:35:25.825Z,14.15
2018-02-06T00:35:49.785Z,14.07
2018-02-06T00:36:13.540Z,12.98
2018-02-06T00:36:37.062Z,13.30
2018-02-06T00:37:00.868Z,13.60
2018-02-06T00:37:24.630Z,13.38
2018-02-06T00:37:48.425Z,13.23
2018-02-06T00:38:12.505Z,13.70
2018-02-06T00:38:36.321Z,13.68
2018-02-06T00:39:00.368Z,13.90
2018-02-06T00:39:24.169Z,14.13
2018-02-06T00:39:48.161Z,14.20
2018-02-06T00:40:12.297Z,13.77
2018-02-06T00:40:36.250Z,13.23
2018-02-06T00:41:00.046Z,13.50
2018-02-06T00:41:23.843Z,14.00
2018-02-06T00:41:47.308Z,14.60
2018-02-06T00:42:14.469Z,13.45
2018-02-06T00:42:38.290Z,13.15
2018-02-06T00:43:02.065Z,13.02
2018-02-06T00:43:25.891Z,14.02
2018-02-06T00:43:49.648Z,13.80
2018-02-06T00:44:13.416Z,13.23
2018-02-06T00:44:36.865Z,13.30
2018-02-06T00:45:00.685Z,14.13
2018-02-06T00:45:24.136Z,14.20
2018-02-06T00:45:47.883Z,13.23
2018-02-06T00:46:11.662Z,13.30
2018-02-06T00:46:35.409Z,13.48
2018-02-06T00:46:59.206Z,13.57
2018-02-06T00:47:22.996Z,13.10
2018-02-06T00:47:46.473Z,13.27
2018-02-06T00:48:09.547Z,13.70
2018-02-06T00:48:33.302Z,13.80
2018-02-06T00:48:57.539Z,12.95
2018-02-06T00:49:21.016Z,12.68
2018-02-06T00:49:44.777Z,12.57
2018-02-06T00:50:08.846Z,12.77
2018-02-06T00:50:32.638Z,13.27
2018-02-06T00:50:56.730Z,14.27
2018-02-06T00:51:20.501Z,13.48
2018-02-06T00:51:44.565Z,13.23
2018-02-06T00:52:08.325Z,12.73
2018-02-06T00:52:31.869Z,13.05
2018-02-06T00:52:55.617Z,13.10
2018-02-06T00:53:19.393Z,12.73
2018-02-06T00:53:43.207Z,12.52
2018-02-06T00:54:07.282Z,13.00
2018-02-06T00:54:31.052Z,13.43
2018-02-06T00:54:55.086Z,13.70
2018-02-06T00:55:19.116Z,13.62
2018-02-06T00:55:42.871Z,13.20
2018-02-06T00:56:06.323Z,13.48
2018-02-06T00:56:30.078Z,13.80
2018-02-06T00:56:53.874Z,13.65
2018-02-06T00:57:17.360Z,13.73
2018-02-06T00:57:41.194Z,13.80
2018-02-06T00:58:04.971Z,13.98
2018-02-06T00:58:28.705Z,14.50
2018-02-06T00:58:52.461Z,14.52
2018-02-06T00:59:15.906Z,14.48
2018-02-06T00:59:39.658Z,14.45
2018-02-06T01:00:03.443Z,14.13
2018-02-06T01:00:27.976Z,14.10
2018-02-06T01:00:51.725Z,14.45
2018-02-06T01:01:15.468Z,14.55
2018-02-06T01:01:39.253Z,14.50
2018-02-06T01:02:03.282Z,14.50
2018-02-06T01:02:27.038Z,14.20
2018-02-06T01:02:50.558Z,14.70
2018-02-06T01:03:14.303Z,14.40
2018-02-06T01:03:38.114Z,14.52
2018-02-06T01:04:01.878Z,15.00
2018-02-06T01:04:25.981Z,14.87
2018-02-06T01:04:49.780Z,14.07
2018-02-06T01:05:13.806Z,13.40
2018-02-06T01:05:37.281Z,14.07
2018-02-06T01:06:01.036Z,14.57
2018-02-06T01:06:24.883Z,15.10
2018-02-06T01:06:48.657Z,15.07
2018-02-06T01:07:12.402Z,15.30
2018-02-06T01:07:35.860Z,15.05
2018-02-06T01:07:59.681Z,15.05
2018-02-06T01:08:23.409Z,15.32
2018-02-06T01:08:47.163Z,15.02
2018-02-06T01:09:10.614Z,14.95
2018-02-06T01:09:34.377Z,14.68
2018-02-06T01:09:58.186Z,14.90
2018-02-06T01:10:21.996Z,15.10
2018-02-06T01:10:46.060Z,15.35
2018-02-06T01:11:10.063Z,15.70
2018-02-06T01:11:33.918Z,15.40
2018-02-06T01:11:57.964Z,14.68
2018-02-06T01:12:21.743Z,14.60
2018-02-06T01:12:45.218Z,14.77
2018-02-06T01:13:08.981Z,14.65
2018-02-06T01:13:32.771Z,15.23
2018-02-06T01:13:56.573Z,15.55
2018-02-06T01:14:20.625Z,15.52
2018-02-06T01:14:44.080Z,15.20
2018-02-06T01:15:07.828Z,15.20
2018-02-06T01:15:31.589Z,15.13
2018-02-06T01:15:55.331Z,15.30
2018-02-06T01:16:19.350Z,15.20
2018-02-06T01:16:43.406Z,15.40
2018-02-06T01:17:07.146Z,15.98
2018-02-06T01:17:30.618Z,15.70
2018-02-06T01:17:54.436Z,15.02
2018-02-06T01:18:18.247Z,15.43
2018-02-06T01:18:42.023Z,15.75
2018-02-06T01:19:05.712Z,15.20
2018-02-06T01:19:29.485Z,14.68
2018-02-06T01:19:53.327Z,15.55
2018-02-06T01:20:17.076Z,15.23
2018-02-06T01:20:40.824Z,14.13
2018-02-06T01:21:04.560Z,14.50
2018-02-06T01:21:28.009Z,14.93
2018-02-06T01:21:51.757Z,16.12
2018-02-06T01:22:15.560Z,16.55
2018-02-06T01:22:39.601Z,16.10
2018-02-06T01:23:03.382Z,15.70
2018-02-06T01:23:26.852Z,15.70
2018-02-06T01:23:50.622Z,15.90
2018-02-06T01:24:14.363Z,14.87
2018-02-06T01:24:38.205Z,15.10
2018-02-06T01:25:02.269Z,15.15
2018-02-06T01:25:26.065Z,15.32
2018-02-06T01:25:49.532Z,15.23
2018-02-06T01:26:13.289Z,15.15
2018-02-06T01:26:37.102Z,15.38
2018-02-06T01:27:01.058Z,15.70
2018-02-06T01:27:24.912Z,16.02
2018-02-06T01:27:49.077Z,16.17
2018-02-06T01:28:12.857Z,16.87
2018-02-06T01:28:36.691Z,16.60
2018-02-06T01:29:00.758Z,16.10
2018-02-06T01:29:24.503Z,15.55
2018-02-06T01:29:47.952Z,15.52
2018-02-06T01:30:11.822Z,15.48
2018-02-06T01:30:35.560Z,15.73
2018-02-06T01:30:59.304Z,15.50
2018-02-06T01:31:22.755Z,15.45
2018-02-06T01:31:46.516Z,15.48
2018-02-06T01:32:10.252Z,16.27
2018-02-06T01:32:34.278Z,16.40
2018-02-06T01:32:58.062Z,15.77
2018-02-06T01:33:21.545Z,16.15
2018-02-06T01:33:45.337Z,16.23
2018-02-06T01:34:09.065Z,15.55
2018-02-06T01:34:32.820Z,16.05
2018-02-06T01:34:56.288Z,16.20
2018-02-06T01:35:20.012Z,15.52
2018-02-06T01:35:43.743Z,15.93
2018-02-06T01:36:07.768Z,15.75
2018-02-06T01:36:31.545Z,16.15
2018-02-06T01:36:54.988Z,16.10
2018-02-06T01:37:18.728Z,16.52
2018-02-06T01:37:42.506Z,16.85
2018-02-06T01:38:06.345Z,16.33
2018-02-06T01:38:29.902Z,16.67
2018-02-06T01:38:53.762Z,15.60
2018-02-06T01:39:17.521Z,15.43
2018-02-06T01:39:41.266Z,15.00
2018-02-06T01:40:05.335Z,15.50
2018-02-06T01:40:29.126Z,15.48
2018-02-06T01:40:53.149Z,16.20
2018-02-06T01:41:17.001Z,16.33
2018-02-06T01:41:41.060Z,16.33
2018-02-06T01:42:04.812Z,15.27
2018-02-06T01:42:28.253Z,15.95
2018-02-06T01:42:52.018Z,15.15
2018-02-06T01:43:15.813Z,15.75
2018-02-06T01:43:39.856Z,15.75
2018-02-06T01:44:03.686Z,16.05
2018-02-06T01:44:27.696Z,15.32
2018-02-06T01:44:51.443Z,15.50
2018-02-06T01:45:14.891Z,15.75
2018-02-06T01:45:38.625Z,15.80
2018-02-06T01:46:02.506Z,15.20
2018-02-06T01:46:26.266Z,15.73
2018-02-06T01:46:49.794Z,16.80
2018-02-06T01:47:13.537Z,17.10
2018-02-06T01:47:37.298Z,16.62
2018-02-06T01:48:01.053Z,16.40
2018-02-06T01:48:25.089Z,15.82
2018-02-06T01:48:49.113Z,15.18
2018-02-06T01:49:12.877Z,15.80
2018-02-06T01:49:36.403Z,15.98
2018-02-06T01:50:05.656Z,14.82
2018-02-06T01:50:29.301Z,15.20
2018-02-06T01:50:52.965Z,15.48
2018-02-06T01:51:16.804Z,15.55
2018-02-06T01:51:40.564Z,14.95
2018-02-06T01:52:04.234Z,14.85
2018-02-06T01:52:28.037Z,14.87
2018-02-06T01:52:51.769Z,14.65
2018-02-06T01:53:15.539Z,15.13
2018-02-06T01:53:39.277Z,15.48
2018-02-06T01:54:02.741Z,14.48
2018-02-06T01:54:26.516Z,14.30
2018-02-06T01:54:50.252Z,14.87
2018-02-06T01:55:14.272Z,15.23
2018-02-06T01:55:38.050Z,15.50
2018-02-06T01:56:01.528Z,15.02
2018-02-06T01:56:25.298Z,15.48
2018-02-06T01:56:49.042Z,15.43
2018-02-06T01:57:12.490Z,14.80
2018-02-06T01:57:36.282Z,15.13
2018-02-06T01:58:00.069Z,15.07
2018-02-06T01:58:23.821Z,15.68
2018-02-06T01:58:47.880Z,16.58
2018-02-06T01:59:11.661Z,15.73
2018-02-06T01:59:35.712Z,15.45
2018-02-06T01:59:59.532Z,15.18
2018-02-06T02:00:23.637Z,15.93
2018-02-06T02:00:47.403Z,15.48
2018-02-06T02:01:10.896Z,16.02
2018-02-06T02:01:34.641Z,15.88
2018-02-06T02:01:58.434Z,15.63
2018-02-06T02:02:22.202Z,15.27
2018-02-06T02:02:45.661Z,14.80
2018-02-06T02:03:09.397Z,14.70
2018-02-06T02:03:33.146Z,15.27
2018-02-06T02:03:57.176Z,15.73
2018-02-06T02:04:21.160Z,14.90
2018-02-06T02:04:44.960Z,15.23
2018-02-06T02:05:09.015Z,15.07
2018-02-06T02:05:32.466Z,15.50
2018-02-06T02:05:56.208Z,15.95
2018-02-06T02:06:20.162Z,15.77
2018-02-06T02:06:43.897Z,14.68
2018-02-06T02:07:07.646Z,14.70
2018-02-06T02:07:31.136Z,14.90
2018-02-06T02:07:54.868Z,15.60
2018-02-06T02:08:18.640Z,16.30
2018-02-06T02:08:42.678Z,16.80
2018-02-06T02:09:06.081Z,16.90
2018-02-06T02:09:30.047Z,16.85
2018-02-06T02:09:53.848Z,15.75
2018-02-06T02:10:17.616Z,15.48
2018-02-06T02:10:41.375Z,15.50
2018-02-06T02:11:04.866Z,16.10
2018-02-06T02:11:28.600Z,16.35
2018-02-06T02:11:52.335Z,15.68
2018-02-06T02:12:16.093Z,14.87
2018-02-06T02:12:40.173Z,15.38
2018-02-06T02:13:03.913Z,15.60
2018-02-06T02:13:27.152Z,15.40
2018-02-06T02:13:50.893Z,15.13
2018-02-06T02:14:14.913Z,15.77
2018-02-06T02:14:38.931Z,15.70
2018-02-06T02:15:02.747Z,15.07
2018-02-06T02:15:26.778Z,15.23
2018-02-06T02:15:50.825Z,15.60
2018-02-06T02:16:14.600Z,15.30
2018-02-06T02:16:38.619Z,15.18
2018-02-06T02:17:02.659Z,15.25
2018-02-06T02:17:26.416Z,15.18
2018-02-06T02:17:49.876Z,14.73
2018-02-06T02:18:13.620Z,15.10
2018-02-06T02:18:37.364Z,15.65
2018-02-06T02:19:01.422Z,16.33
2018-02-06T02:19:24.919Z,16.92
2018-02-06T02:19:48.737Z,16.83
2018-02-06T02:20:12.600Z,15.80
2018-02-06T02:20:36.364Z,15.75
2018-02-06T02:21:00.109Z,15.52
2018-02-06T02:21:23.869Z,15.57
2018-02-06T02:21:47.321Z,16.10
2018-02-06T02:22:11.110Z,16.77
2018-02-06T02:22:34.926Z,16.58
2018-02-06T02:22:58.690Z,16.58
2018-02-06T02:23:22.180Z,16.00
2018-02-06T02:23:45.939Z,16.10
2018-02-06T02:24:09.726Z,16.10
2018-02-06T02:24:33.473Z,15.70
2018-02-06T02:24:56.923Z,15.48
2018-02-06T02:25:20.697Z,15.02
2018-02-06T02:25:44.133Z,14.32
2018-02-06T02:26:07.865Z,14.20
2018-02-06T02:26:31.670Z,14.35
2018-02-06T02:26:55.424Z,14.95
2018-02-06T02:27:19.156Z,15.35
2018-02-06T02:27:43.210Z,14.87
2018-02-06T02:28:07.235Z,14.45
2018-02-06T02:28:30.981Z,15.45
2018-02-06T02:28:54.430Z,16.33
2018-02-06T02:29:18.180Z,16.00
2018-02-06T02:29:41.916Z,15.30
2018-02-06T02:30:05.968Z,15.30
2018-02-06T02:30:29.508Z,15.40
2018-02-06T02:30:53.259Z,15.65
2018-02-06T02:31:17.037Z,16.08
2018-02-06T02:31:40.787Z,16.48
2018-02-06T02:32:04.536Z,16.48
2018-02-06T02:32:28.271Z,16.30
2018-02-06T02:32:52.021Z,15.70
2018-02-06T02:33:15.848Z,15.40
2018-02-06T02:33:39.606Z,15.20
2018-02-06T02:34:03.440Z,15.13
2018-02-06T02:34:27.496Z,15.60
2018-02-06T02:34:51.254Z,15.80
2018-02-06T02:35:15.308Z,16.40
2018-02-06T02:35:38.794Z,16.03
2018-02-06T02:36:02.649Z,15.20
2018-02-06T02:36:26.473Z,14.93
2018-02-06T02:36:50.264Z,14.75
2018-02-06T02:37:14.016Z,14.45
2018-02-06T02:37:38.073Z,15.07
2018-02-06T02:38:01.841Z,15.80
2018-02-06T02:38:25.878Z,15.63
2018-02-06T02:38:49.901Z,15.63
2018-02-06T02:39:13.738Z,15.20
2018-02-06T02:39:37.798Z,15.40
2018-02-06T02:40:01.536Z,15.68
2018-02-06T02:40:24.972Z,16.10
2018-02-06T02:40:48.747Z,15.55
2018-02-06T02:41:12.496Z,15.05
2018-02-06T02:41:36.505Z,15.63
2018-02-06T04:38:46.520Z,18.33
2018-02-06T04:39:10.272Z,17.48
2018-02-06T04:39:34.016Z,17.83
2018-02-06T04:39:57.500Z,18.60
2018-02-06T04:40:21.366Z,18.55
2018-02-06T04:40:45.116Z,19.10
2018-02-06T04:41:08.868Z,19.23
2018-02-06T04:41:32.900Z,19.55
2018-02-06T04:41:56.746Z,18.87
2018-02-06T04:42:20.761Z,18.05
2018-02-06T04:42:44.205Z,18.23
2018-02-06T04:43:08.017Z,19.20
2018-02-06T04:43:31.796Z,18.67
2018-02-06T04:43:55.524Z,18.48
2018-02-06T04:44:19.029Z,18.23
2018-02-06T04:44:42.813Z,18.45
2018-02-06T04:45:06.366Z,17.67
2018-02-06T04:45:29.821Z,18.08
2018-02-06T04:45:53.573Z,18.55
2018-02-06T04:46:17.354Z,18.52
2018-02-06T04:46:41.099Z,17.70
2018-02-06T04:47:05.139Z,17.60
2018-02-06T04:47:28.937Z,17.60
2018-02-06T04:47:52.960Z,17.30
2018-02-06T04:48:16.705Z,17.52
2018-02-06T04:48:40.486Z,18.12
2018-02-06T04:49:04.058Z,18.10
2018-02-06T04:49:27.814Z,18.90
2018-02-06T04:49:51.370Z,18.42
2018-02-06T04:50:15.132Z,18.25
2018-02-06T04:50:38.912Z,18.00
2018-02-06T04:51:02.686Z,17.83
2018-02-06T04:51:26.434Z,17.20
2018-02-06T04:51:49.921Z,16.70
2018-02-06T04:52:13.706Z,17.08
2018-02-06T04:52:37.665Z,17.00
2018-02-06T04:53:01.401Z,17.08
2018-02-06T04:53:25.158Z,17.10
2018-02-06T04:53:48.989Z,17.33
2018-02-06T04:54:13.056Z,18.45
2018-02-06T04:54:36.833Z,18.25
2018-02-06T04:54:59.959Z,18.08
2018-02-06T04:55:23.740Z,17.27
2018-02-06T04:55:47.252Z,17.48
2018-02-06T04:56:10.996Z,17.95
2018-02-06T04:56:34.780Z,17.40
2018-02-06T04:56:58.520Z,17.52
2018-02-06T04:57:22.572Z,18.05
2018-02-06T04:57:46.024Z,17.50
2018-02-06T04:58:09.775Z,17.50
2018-02-06T04:58:33.569Z,17.48
2018-02-06T04:58:57.368Z,17.33
2018-02-06T04:59:21.152Z,16.98
2018-02-06T04:59:45.207Z,17.12
2018-02-06T05:00:08.672Z,17.50
2018-02-06T05:00:32.429Z,17.37
2018-02-06T05:00:56.392Z,16.60
2018-02-06T05:01:20.145Z,16.52
2018-02-06T05:01:43.970Z,16.48
2018-02-06T05:02:07.760Z,17.00
2018-02-06T05:02:31.817Z,18.15
2018-02-06T05:02:55.317Z,18.03
2018-02-06T05:03:19.312Z,17.50
2018-02-06T05:03:43.048Z,16.67
2018-02-06T05:04:06.805Z,16.30
2018-02-06T05:04:30.560Z,16.50
2018-02-06T05:04:54.350Z,16.15
2018-02-06T05:05:17.796Z,15.90
2018-02-06T05:05:41.548Z,16.52
2018-02-06T05:06:05.295Z,16.70
2018-02-06T05:48:06.879Z,16.60
2018-02-06T05:48:30.959Z,16.12
2018-02-06T05:48:54.725Z,16.25
2018-02-06T05:49:18.192Z,16.62
2018-02-06T05:49:41.985Z,16.87
2018-02-06T05:50:05.753Z,16.60
2018-02-06T05:50:29.508Z,16.40
2018-02-06T05:50:52.985Z,16.02
2018-02-06T05:51:16.740Z,16.00
2018-02-06T05:51:40.476Z,15.88
2018-02-06T05:52:04.448Z,15.60
2018-02-06T05:52:28.200Z,15.50
2018-02-06T05:52:52.335Z,16.67
2018-02-06T05:53:16.184Z,16.73
2018-02-06T05:53:39.963Z,16.98
2018-02-06T05:54:03.497Z,17.55
2018-02-06T05:54:27.332Z,18.30
2018-02-06T05:54:51.186Z,17.67
2018-02-06T05:55:15.027Z,16.80
2018-02-06T05:55:38.775Z,16.62
2018-02-06T05:56:02.226Z,16.43
2018-02-06T05:56:26.049Z,16.52
2018-02-06T05:56:49.842Z,16.58
2018-02-06T05:57:13.581Z,17.33
2018-02-06T05:57:37.364Z,17.60
2018-02-06T05:58:01.441Z,17.73
2018-02-06T05:58:25.228Z,17.48
2018-02-06T05:58:49.260Z,16.92
2018-02-06T05:59:13.277Z,16.40
2018-02-06T05:59:37.042Z,16.85
2018-02-06T06:00:00.501Z,16.65
2018-02-06T06:00:24.270Z,17.33
2018-02-06T06:00:48.096Z,16.40
2018-02-06T06:01:11.866Z,16.62
2018-02-06T06:01:35.900Z,16.85
2018-02-06T06:01:59.668Z,17.65
2018-02-06T06:02:23.825Z,16.80
2018-02-06T06:02:47.673Z,16.60
2018-02-06T06:03:11.420Z,16.17
2018-02-06T06:03:35.064Z,16.55
2018-02-06T06:03:58.697Z,16.17
2018-02-06T06:04:22.436Z,16.40
2018-02-06T06:04:46.188Z,15.90
2018-02-06T06:05:09.662Z,15.75
2018-02-06T06:05:33.518Z,16.70
2018-02-06T06:05:57.418Z,16.60
2018-02-06T06:06:21.176Z,15.98
2018-02-06T06:06:44.928Z,15.85
2018-02-06T06:07:08.385Z,16.15
2018-02-06T06:07:32.125Z,16.37
2018-02-06T06:07:55.889Z,17.15
2018-02-06T06:08:19.741Z,17.12
2018-02-06T06:08:43.878Z,16.73
2018-02-06T06:09:07.613Z,16.35
2018-02-06T06:09:31.701Z,16.95
2018-02-06T06:09:55.489Z,17.23
2018-02-06T06:10:19.625Z,17.33
2018-02-06T06:10:43.385Z,16.77
2018-02-06T06:11:07.471Z,15.60
2018-02-06T06:11:31.241Z,15.45
2018-02-06T06:11:55.367Z,15.95
2018-02-06T06:12:19.228Z,16.67
2018-02-06T06:12:42.678Z,16.40
2018-02-06T06:13:06.432Z,15.77
2018-02-06T06:13:30.200Z,15.73
2018-02-06T06:13:54.027Z,15.90
2018-02-06T06:14:17.807Z,16.17
2018-02-06T06:14:41.830Z,16.73
2018-02-06T06:15:05.920Z,15.75
2018-02-06T06:15:29.657Z,15.90
2018-02-06T06:15:53.686Z,16.27
2018-02-06T06:16:17.210Z,15.90
2018-02-06T06:16:40.933Z,15.40
2018-02-06T06:17:04.513Z,16.15
2018-02-06T06:17:28.063Z,16.80
2018-02-06T06:17:51.877Z,16.87
2018-02-06T06:18:15.617Z,17.12
2018-02-06T06:18:39.370Z,17.17
2018-02-06T06:19:03.136Z,17.23
2018-02-06T06:19:27.172Z,16.90
2018-02-06T06:19:50.620Z,17.40
2018-02-06T06:20:14.566Z,17.67
2018-02-06T06:20:38.300Z,18.58
2018-02-06T06:21:02.041Z,17.40
2018-02-06T06:21:25.796Z,17.25
2018-02-06T06:21:49.841Z,17.37
2018-02-06T06:22:13.593Z,17.42
2018-02-06T06:22:37.115Z,16.23
2018-02-06T06:23:00.974Z,15.60
2018-02-06T06:23:24.718Z,15.40
2018-02-06T06:23:48.498Z,16.20
2018-02-06T06:24:12.560Z,16.42
2018-02-06T06:24:36.344Z,17.08
2018-02-06T06:25:00.382Z,16.90
2018-02-06T06:25:23.829Z,17.60
2018-02-06T06:25:47.592Z,17.87
2018-02-06T06:26:11.430Z,18.02
2018-02-06T06:26:35.170Z,17.73
2018-02-06T06:26:58.974Z,17.40
2018-02-06T06:27:23.016Z,16.25
2018-02-06T06:27:46.472Z,15.93
2018-02-06T06:28:10.224Z,16.48
2018-02-06T06:28:33.972Z,16.83
2018-02-06T06:28:57.728Z,16.62
2018-02-06T06:29:21.793Z,16.10
2018-02-06T06:29:45.613Z,16.30
2018-02-06T06:30:09.321Z,16.45
2018-02-06T06:30:33.114Z,16.20
2018-02-06T06:30:56.922Z,16.70
2018-02-06T06:31:20.962Z,16.27
2018-02-06T06:31:44.693Z,15.25
2018-02-06T06:32:08.485Z,14.63
2018-02-06T06:32:32.243Z,15.82
2018-02-06T06:32:56.268Z,17.30
2018-02-06T06:33:20.037Z,17.60
2018-02-06T06:33:44.096Z,17.40
2018-02-06T06:34:08.150Z,16.87
2018-02-06T06:34:31.757Z,17.35
2018-02-06T06:34:55.259Z,17.10
2018-02-06T06:35:18.995Z,15.20
2018-02-06T06:35:42.741Z,14.80
2018-02-06T06:36:06.886Z,15.25
2018-02-06T06:36:30.670Z,17.00
2018-02-06T06:36:54.275Z,16.50
2018-02-06T06:37:18.067Z,16.15
2018-02-06T06:37:41.845Z,16.73
2018-02-06T06:38:05.583Z,16.48
2018-02-06T06:38:29.341Z,16.02
2018-02-06T06:38:53.407Z,15.85
2018-02-06T06:39:17.156Z,15.68
2018-02-06T06:39:40.799Z,15.77
2018-02-06T06:40:04.687Z,15.73
2018-02-06T06:40:28.529Z,15.73
2018-02-06T06:40:52.256Z,16.55
2018-02-06T06:41:16.013Z,17.12
2018-02-06T06:41:39.853Z,16.85
2018-02-06T06:42:03.885Z,17.00
2018-02-06T06:42:27.339Z,17.00
2018-02-06T06:42:51.145Z,18.17
2018-02-06T06:43:14.712Z,17.90
2018-02-06T06:43:38.200Z,16.97
2018-02-06T06:44:01.972Z,16.48
2018-02-06T06:44:25.879Z,17.30
2018-02-06T06:44:49.705Z,16.90
2018-02-06T06:45:13.463Z,16.87
2018-02-06T06:45:37.256Z,16.83
2018-02-06T06:46:00.746Z,17.02
2018-02-06T06:46:24.548Z,16.50
2018-02-06T06:46:48.353Z,15.90
2018-02-06T06:47:12.105Z,16.62
2018-02-06T06:47:36.199Z,17.48
2018-02-06T06:47:59.997Z,17.90
2018-02-06T06:48:23.470Z,17.57
2018-02-06T06:48:47.408Z,16.65
2018-02-06T06:49:11.160Z,16.33
2018-02-06T06:49:35.097Z,16.62
2018-02-06T06:49:58.882Z,17.12
2018-02-06T06:50:22.634Z,17.80
2018-02-06T06:50:46.125Z,18.27
2018-02-06T06:51:09.873Z,17.30
2018-02-06T06:51:33.711Z,17.40
2018-02-06T06:51:57.476Z,17.95
2018-02-06T06:52:21.452Z,18.27
2018-02-06T06:52:45.320Z,18.23
2018-02-06T06:53:08.796Z,18.30
2018-02-06T06:53:32.597Z,18.17
2018-02-06T06:53:56.371Z,18.50
2018-02-06T06:54:20.193Z,18.37
2018-02-06T06:54:43.953Z,18.00
2018-02-06T06:55:08.024Z,18.65
2018-02-06T06:55:31.793Z,19.58
2018-02-06T06:55:55.269Z,19.20
2018-02-06T06:56:19.021Z,18.48
2018-02-06T06:56:42.849Z,17.48
2018-02-06T06:57:06.709Z,17.75
2018-02-06T06:57:30.514Z,18.65
2018-02-06T06:57:54.560Z,18.10
2018-02-06T06:58:18.367Z,18.30
2018-02-06T06:58:42.423Z,18.00
2018-02-06T06:59:06.192Z,19.25
2018-02-06T06:59:29.697Z,19.65
2018-02-06T06:59:53.480Z,19.60
2018-02-06T07:00:17.088Z,19.05
2018-02-06T07:00:40.556Z,18.80
2018-02-06T07:01:04.362Z,19.12
2018-02-06T07:01:28.151Z,19.62
2018-02-06T07:01:51.908Z,19.42
2018-02-06T07:02:15.955Z,18.65
2018-02-06T07:02:39.816Z,18.40
2018-02-06T07:03:03.863Z,17.95
2018-02-06T07:03:27.622Z,17.87
2018-02-06T07:03:51.073Z,17.95
2018-02-06T07:04:14.847Z,18.15
2018-02-06T07:04:38.580Z,18.15
2018-02-06T07:05:02.319Z,18.55
2018-02-06T07:05:26.397Z,18.56
2018-02-06T07:05:50.425Z,18.50
2018-02-06T07:06:14.172Z,18.70
2018-02-06T07:06:37.679Z,18.90
2018-02-06T07:07:01.428Z,19.52
2018-02-06T07:07:25.181Z,19.98
2018-02-06T07:07:48.631Z,19.93
2018-02-06T07:08:12.416Z,20.35
2018-02-06T07:08:36.198Z,19.37
2018-02-06T07:09:00.029Z,19.48
2018-02-06T07:09:23.780Z,18.35
2018-02-06T07:09:47.811Z,18.62
2018-02-06T07:10:11.836Z,18.30
2018-02-06T07:10:35.604Z,18.33
2018-02-06T07:10:59.624Z,18.08
2018-02-06T07:11:23.639Z,17.77
2018-02-06T07:11:47.479Z,17.33
2018-02-06T07:12:11.494Z,16.95
2018-02-06T07:12:34.963Z,17.83
2018-02-06T07:12:58.556Z,18.45
2018-02-06T07:13:22.379Z,18.70
2018-02-06T07:13:46.139Z,19.42
2018-02-06T07:14:10.180Z,18.92
2018-02-06T07:14:33.664Z,17.37
2018-02-06T07:14:57.432Z,17.58
2018-02-06T07:15:21.224Z,18.00
2018-02-06T07:15:45.117Z,18.12
2018-02-06T07:16:08.676Z,18.90
2018-02-06T07:16:32.464Z,18.80
2018-02-06T07:16:55.966Z,19.95
2018-02-06T07:17:19.779Z,19.73
2018-02-06T07:17:43.537Z,19.55
2018-02-06T07:18:06.992Z,18.95
2018-02-06T07:18:30.748Z,18.80
2018-02-06T07:18:54.521Z,19.00
2018-02-06T07:19:18.002Z,19.47
2018-02-06T07:19:41.735Z,19.35
2018-02-06T07:20:04.820Z,18.85
2018-02-06T07:20:28.572Z,18.00
2018-02-06T07:20:52.165Z,18.10
2018-02-06T07:21:16.189Z,18.35
2018-02-06T07:21:39.642Z,18.30
2018-02-06T07:22:03.592Z,18.70
2018-02-06T07:22:27.344Z,18.77
2018-02-06T07:22:51.092Z,18.62
2018-02-06T07:23:14.826Z,18.60
2018-02-06T07:23:38.884Z,18.50
2018-02-06T07:24:02.656Z,18.70
2018-02-06T07:24:26.684Z,18.87
2018-02-06T07:24:50.714Z,19.00
2018-02-06T07:25:14.483Z,18.87
2018-02-06T07:25:38.543Z,19.02
2018-02-06T07:26:02.384Z,19.02
2018-02-06T07:26:26.489Z,19.50
2018-02-06T07:26:50.263Z,19.75
2018-02-06T07:27:14.304Z,18.50
2018-02-06T07:27:38.098Z,17.92
2018-02-06T07:28:01.579Z,17.70
2018-02-06T07:28:25.317Z,18.33
2018-02-06T07:28:49.107Z,18.83
2018-02-06T07:29:12.927Z,18.60
2018-02-06T07:29:37.019Z,18.62
2018-02-06T07:30:00.771Z,18.73
2018-02-06T07:30:24.896Z,19.62
2018-02-06T07:30:48.652Z,19.05
2018-02-06T07:31:12.717Z,18.80
2018-02-06T07:31:36.477Z,17.85
2018-02-06T07:32:00.534Z,18.12
2018-02-06T07:32:24.656Z,18.75
2018-02-06T07:32:48.404Z,19.27
2018-02-06T07:33:12.466Z,18.75
2018-02-06T07:33:36.237Z,18.95
2018-02-06T07:34:00.337Z,19.48
2018-02-06T07:34:24.284Z,19.83
2018-02-06T07:34:48.243Z,20.00
2018-02-06T07:35:12.092Z,18.62
2018-02-06T07:35:36.140Z,18.50
2018-02-06T07:35:59.902Z,17.83
2018-02-06T07:36:24.020Z,18.15
2018-02-06T07:36:47.768Z,18.50
2018-02-06T07:37:11.909Z,18.67
2018-02-06T07:37:35.639Z,17.70
2018-02-06T07:37:59.721Z,18.60
2018-02-06T07:38:23.488Z,19.33
2018-02-06T07:38:47.009Z,19.45
2018-02-06T07:39:10.784Z,19.15
2018-02-06T07:39:34.542Z,18.62
2018-02-06T07:39:58.301Z,18.67
2018-02-06T07:40:22.349Z,18.45
2018-02-06T07:40:46.107Z,18.27
2018-02-06T07:41:10.188Z,20.88
2018-02-06T07:41:33.956Z,21.58
2018-02-06T07:41:57.408Z,21.23
2018-02-06T07:42:21.145Z,20.10
2018-02-06T07:42:44.933Z,20.20
2018-02-06T07:43:08.744Z,20.30
2018-02-06T07:43:32.300Z,20.92
2018-02-06T07:43:55.871Z,19.48
2018-02-06T07:44:19.644Z,18.73
2018-02-06T07:44:43.686Z,18.52
2018-02-06T07:45:07.623Z,19.02